sensor_id;sensor_type;location;lat;lon;timestamp;temperature;humidity
75281;HTU21D;63874;47.230;39.620;2023-06-22T00:01:56;18.40;51.57
75281;HTU21D;63874;47.230;39.620;2023-06-22T00:04:22;18.37;51.57
75281;HTU21D;63874;47.230;39.620;2023-06-22T00:06:48;18.34;51.55
75281;HTU21D;63874;47.230;39.620;2023-06-22T00:09:14;18.34;51.50
75281;HTU21D;63874;47.230;39.620;2023-06-22T00:11:39;18.34;51.41
75281;HTU21D;63874;47.230;39.620;2023-06-22T00:14:05;18.36;51.37
75281;HTU21D;63874;47.230;39.620;2023-06-22T00:16:32;18.36;51.30
75281;HTU21D;63874;47.230;39.620;2023-06-22T00:18:58;18.33;51.31
75281;HTU21D;63874;47.230;39.620;2023-06-22T00:21:26;18.29;51.42
75281;HTU21D;63874;47.230;39.620;2023-06-22T00:23:52;18.25;51.43
75281;HTU21D;63874;47.230;39.620;2023-06-22T00:26:19;18.18;51.43
75281;HTU21D;63874;47.230;39.620;2023-06-22T00:28:45;18.12;51.59
75281;HTU21D;63874;47.230;39.620;2023-06-22T00:31:10;18.05;51.72
75281;HTU21D;63874;47.230;39.620;2023-06-22T00:33:36;17.98;51.75
75281;HTU21D;63874;47.230;39.620;2023-06-22T00:36:05;17.95;51.78
75281;HTU21D;63874;47.230;39.620;2023-06-22T00:38:32;17.91;51.75
75281;HTU21D;63874;47.230;39.620;2023-06-22T00:40:57;17.88;51.70
75281;HTU21D;63874;47.230;39.620;2023-06-22T00:43:23;17.82;51.74
75281;HTU21D;63874;47.230;39.620;2023-06-22T00:45:49;17.81;51.73
75281;HTU21D;63874;47.230;39.620;2023-06-22T00:48:16;17.77;51.75
75281;HTU21D;63874;47.230;39.620;2023-06-22T00:50:43;17.76;51.72
75281;HTU21D;63874;47.230;39.620;2023-06-22T00:53:09;17.73;51.67
75281;HTU21D;63874;47.230;39.620;2023-06-22T00:55:42;17.74;51.53
75281;HTU21D;63874;47.230;39.620;2023-06-22T00:58:17;17.69;51.53
75281;HTU21D;63874;47.230;39.620;2023-06-22T01:00:48;17.61;51.61
75281;HTU21D;63874;47.230;39.620;2023-06-22T01:03:14;17.62;51.50
75281;HTU21D;63874;47.230;39.620;2023-06-22T01:05:42;17.59;51.49
75281;HTU21D;63874;47.230;39.620;2023-06-22T01:10:57;17.56;51.28
75281;HTU21D;63874;47.230;39.620;2023-06-22T01:13:48;17.53;51.29
75281;HTU21D;63874;47.230;39.620;2023-06-22T01:16:26;17.49;51.38
75281;HTU21D;63874;47.230;39.620;2023-06-22T01:18:55;17.45;51.37
75281;HTU21D;63874;47.230;39.620;2023-06-22T01:21:24;17.40;51.46
75281;HTU21D;63874;47.230;39.620;2023-06-22T01:29:05;17.36;51.44
75281;HTU21D;63874;47.230;39.620;2023-06-22T01:31:33;17.34;51.47
75281;HTU21D;63874;47.230;39.620;2023-06-22T01:34:03;17.32;51.44
75281;HTU21D;63874;47.230;39.620;2023-06-22T01:36:31;17.32;51.43
75281;HTU21D;63874;47.230;39.620;2023-06-22T01:38:58;17.29;51.48
75281;HTU21D;63874;47.230;39.620;2023-06-22T01:41:30;17.28;51.50
75281;HTU21D;63874;47.230;39.620;2023-06-22T01:43:56;17.25;51.54
75281;HTU21D;63874;47.230;39.620;2023-06-22T01:46:23;17.23;51.56
75281;HTU21D;63874;47.230;39.620;2023-06-22T01:48:49;17.22;51.57
75281;HTU21D;63874;47.230;39.620;2023-06-22T01:51:16;17.21;51.61
75281;HTU21D;63874;47.230;39.620;2023-06-22T01:53:42;17.19;51.71
75281;HTU21D;63874;47.230;39.620;2023-06-22T01:56:08;17.18;51.73
75281;HTU21D;63874;47.230;39.620;2023-06-22T01:58:37;17.18;51.71
75281;HTU21D;63874;47.230;39.620;2023-06-22T02:01:10;17.18;51.74
75281;HTU21D;63874;47.230;39.620;2023-06-22T02:03:50;17.20;51.75
75281;HTU21D;63874;47.230;39.620;2023-06-22T02:06:24;17.20;51.86
75281;HTU21D;63874;47.230;39.620;2023-06-22T02:08:59;17.16;51.96
75281;HTU21D;63874;47.230;39.620;2023-06-22T02:11:28;17.15;52.07
75281;HTU21D;63874;47.230;39.620;2023-06-22T02:13:56;17.14;52.20
75281;HTU21D;63874;47.230;39.620;2023-06-22T02:16:23;17.11;52.37
75281;HTU21D;63874;47.230;39.620;2023-06-22T02:18:50;17.15;52.56
75281;HTU21D;63874;47.230;39.620;2023-06-22T02:21:20;17.14;52.59
75281;HTU21D;63874;47.230;39.620;2023-06-22T02:23:46;17.11;52.72
75281;HTU21D;63874;47.230;39.620;2023-06-22T02:26:12;17.11;52.88
75281;HTU21D;63874;47.230;39.620;2023-06-22T02:28:41;17.08;53.01
75281;HTU21D;63874;47.230;39.620;2023-06-22T02:31:06;17.09;53.17
75281;HTU21D;63874;47.230;39.620;2023-06-22T02:33:32;17.08;53.33
75281;HTU21D;63874;47.230;39.620;2023-06-22T02:35:58;17.08;53.36
75281;HTU21D;63874;47.230;39.620;2023-06-22T02:38:24;17.08;53.43
75281;HTU21D;63874;47.230;39.620;2023-06-22T02:40:51;17.07;53.50
75281;HTU21D;63874;47.230;39.620;2023-06-22T02:43:17;17.06;53.59
75281;HTU21D;63874;47.230;39.620;2023-06-22T02:45:43;17.07;53.49
75281;HTU21D;63874;47.230;39.620;2023-06-22T02:48:10;17.10;53.40
75281;HTU21D;63874;47.230;39.620;2023-06-22T02:50:36;17.11;53.27
75281;HTU21D;63874;47.230;39.620;2023-06-22T02:53:04;17.16;53.17
75281;HTU21D;63874;47.230;39.620;2023-06-22T02:55:35;17.19;52.99
75281;HTU21D;63874;47.230;39.620;2023-06-22T02:58:00;17.23;52.88
75281;HTU21D;63874;47.230;39.620;2023-06-22T03:00:32;17.26;52.82
75281;HTU21D;63874;47.230;39.620;2023-06-22T03:02:59;17.26;52.85
75281;HTU21D;63874;47.230;39.620;2023-06-22T03:05:25;17.28;52.89
75281;HTU21D;63874;47.230;39.620;2023-06-22T03:07:52;17.31;52.94
75281;HTU21D;63874;47.230;39.620;2023-06-22T03:10:18;17.35;52.99
75281;HTU21D;63874;47.230;39.620;2023-06-22T03:12:44;17.38;52.94
75281;HTU21D;63874;47.230;39.620;2023-06-22T03:15:11;17.44;52.87
75281;HTU21D;63874;47.230;39.620;2023-06-22T03:17:38;17.46;52.69
75281;HTU21D;63874;47.230;39.620;2023-06-22T03:20:07;17.47;52.60
75281;HTU21D;63874;47.230;39.620;2023-06-22T03:22:38;17.48;52.69
75281;HTU21D;63874;47.230;39.620;2023-06-22T03:25:05;17.49;52.76
75281;HTU21D;63874;47.230;39.620;2023-06-22T03:27:41;17.54;52.71
75281;HTU21D;63874;47.230;39.620;2023-06-22T03:30:10;17.58;52.65
75281;HTU21D;63874;47.230;39.620;2023-06-22T03:32:36;17.64;52.52
75281;HTU21D;63874;47.230;39.620;2023-06-22T03:35:04;17.66;52.54
75281;HTU21D;63874;47.230;39.620;2023-06-22T03:37:33;17.69;52.50
75281;HTU21D;63874;47.230;39.620;2023-06-22T03:39:59;17.73;52.42
75281;HTU21D;63874;47.230;39.620;2023-06-22T03:42:28;17.81;52.40
75281;HTU21D;63874;47.230;39.620;2023-06-22T03:44:54;17.84;52.40
75281;HTU21D;63874;47.230;39.620;2023-06-22T03:47:20;17.92;52.33
75281;HTU21D;63874;47.230;39.620;2023-06-22T03:49:46;17.96;52.29
75281;HTU21D;63874;47.230;39.620;2023-06-22T03:52:12;18.03;52.30
75281;HTU21D;63874;47.230;39.620;2023-06-22T03:54:38;18.11;52.25
75281;HTU21D;63874;47.230;39.620;2023-06-22T03:57:04;18.20;52.11
75281;HTU21D;63874;47.230;39.620;2023-06-22T03:59:33;18.29;51.91
75281;HTU21D;63874;47.230;39.620;2023-06-22T04:01:59;18.36;51.79
75281;HTU21D;63874;47.230;39.620;2023-06-22T04:04:25;18.48;51.68
75281;HTU21D;63874;47.230;39.620;2023-06-22T04:06:51;18.57;51.56
75281;HTU21D;63874;47.230;39.620;2023-06-22T04:09:17;18.65;51.17
75281;HTU21D;63874;47.230;39.620;2023-06-22T04:11:43;18.73;50.88
75281;HTU21D;63874;47.230;39.620;2023-06-22T04:14:09;18.80;50.78
75281;HTU21D;63874;47.230;39.620;2023-06-22T04:16:34;18.86;50.79
75281;HTU21D;63874;47.230;39.620;2023-06-22T04:19:00;18.97;50.39
75281;HTU21D;63874;47.230;39.620;2023-06-22T04:21:31;19.03;50.40
75281;HTU21D;63874;47.230;39.620;2023-06-22T04:23:59;19.11;50.23
75281;HTU21D;63874;47.230;39.620;2023-06-22T04:26:25;19.22;49.85
75281;HTU21D;63874;47.230;39.620;2023-06-22T04:28:53;19.26;49.90
75281;HTU21D;63874;47.230;39.620;2023-06-22T04:31:21;19.37;49.84
75281;HTU21D;63874;47.230;39.620;2023-06-22T04:33:47;19.44;49.50
75281;HTU21D;63874;47.230;39.620;2023-06-22T04:36:13;19.52;49.02
75281;HTU21D;63874;47.230;39.620;2023-06-22T04:38:39;19.61;48.69
75281;HTU21D;63874;47.230;39.620;2023-06-22T04:41:05;19.68;48.53
75281;HTU21D;63874;47.230;39.620;2023-06-22T04:43:34;19.75;48.28
75281;HTU21D;63874;47.230;39.620;2023-06-22T04:45:59;19.84;47.97
75281;HTU21D;63874;47.230;39.620;2023-06-22T04:48:32;19.91;47.77
75281;HTU21D;63874;47.230;39.620;2023-06-22T04:50:59;19.99;47.63
75281;HTU21D;63874;47.230;39.620;2023-06-22T04:53:30;20.09;47.89
75281;HTU21D;63874;47.230;39.620;2023-06-22T04:55:56;20.17;47.46
75281;HTU21D;63874;47.230;39.620;2023-06-22T04:58:22;20.27;47.18
75281;HTU21D;63874;47.230;39.620;2023-06-22T05:00:48;20.36;46.28
75281;HTU21D;63874;47.230;39.620;2023-06-22T05:03:17;20.45;45.84
75281;HTU21D;63874;47.230;39.620;2023-06-22T05:05:44;20.49;45.57
75281;HTU21D;63874;47.230;39.620;2023-06-22T05:08:10;20.56;45.15
75281;HTU21D;63874;47.230;39.620;2023-06-22T05:10:36;20.62;44.93
75281;HTU21D;63874;47.230;39.620;2023-06-22T05:13:01;20.66;44.35
75281;HTU21D;63874;47.230;39.620;2023-06-22T05:15:27;20.69;44.16
75281;HTU21D;63874;47.230;39.620;2023-06-22T05:17:56;20.72;44.03
75281;HTU21D;63874;47.230;39.620;2023-06-22T05:20:22;20.78;44.42
75281;HTU21D;63874;47.230;39.620;2023-06-22T05:22:48;20.88;43.70
75281;HTU21D;63874;47.230;39.620;2023-06-22T05:25:13;20.92;43.88
75281;HTU21D;63874;47.230;39.620;2023-06-22T05:27:39;21.01;43.35
75281;HTU21D;63874;47.230;39.620;2023-06-22T05:30:07;21.06;43.11
75281;HTU21D;63874;47.230;39.620;2023-06-22T05:32:33;21.08;42.54
75281;HTU21D;63874;47.230;39.620;2023-06-22T05:34:59;21.05;42.23
75281;HTU21D;63874;47.230;39.620;2023-06-22T05:37:25;21.07;42.61
75281;HTU21D;63874;47.230;39.620;2023-06-22T05:39:51;21.15;42.72
75281;HTU21D;63874;47.230;39.620;2023-06-22T05:42:17;21.27;42.58
75281;HTU21D;63874;47.230;39.620;2023-06-22T05:44:43;21.34;42.00
75281;HTU21D;63874;47.230;39.620;2023-06-22T05:47:09;21.36;41.27
75281;HTU21D;63874;47.230;39.620;2023-06-22T05:49:35;21.39;41.57
75281;HTU21D;63874;47.230;39.620;2023-06-22T05:52:01;21.47;41.43
75281;HTU21D;63874;47.230;39.620;2023-06-22T05:54:30;21.53;41.53
75281;HTU21D;63874;47.230;39.620;2023-06-22T05:56:56;21.61;40.92
75281;HTU21D;63874;47.230;39.620;2023-06-22T05:59:22;21.65;40.94
75281;HTU21D;63874;47.230;39.620;2023-06-22T06:01:48;21.70;40.80
75281;HTU21D;63874;47.230;39.620;2023-06-22T06:04:17;21.77;40.96
75281;HTU21D;63874;47.230;39.620;2023-06-22T06:06:43;21.87;40.83
75281;HTU21D;63874;47.230;39.620;2023-06-22T06:09:09;21.95;40.00
75281;HTU21D;63874;47.230;39.620;2023-06-22T06:11:37;21.99;39.73
75281;HTU21D;63874;47.230;39.620;2023-06-22T06:14:03;22.01;39.35
75281;HTU21D;63874;47.230;39.620;2023-06-22T06:16:29;22.01;39.35
75281;HTU21D;63874;47.230;39.620;2023-06-22T06:18:55;22.05;39.47
75281;HTU21D;63874;47.230;39.620;2023-06-22T06:21:22;22.08;39.18
75281;HTU21D;63874;47.230;39.620;2023-06-22T06:23:48;22.10;38.89
75281;HTU21D;63874;47.230;39.620;2023-06-22T06:26:14;22.13;39.24
75281;HTU21D;63874;47.230;39.620;2023-06-22T06:28:42;22.22;39.09
75281;HTU21D;63874;47.230;39.620;2023-06-22T06:31:09;22.25;38.97
75281;HTU21D;63874;47.230;39.620;2023-06-22T06:33:35;22.28;38.76
75281;HTU21D;63874;47.230;39.620;2023-06-22T06:36:01;22.33;38.83
75281;HTU21D;63874;47.230;39.620;2023-06-22T06:38:31;22.36;39.10
75281;HTU21D;63874;47.230;39.620;2023-06-22T06:40:58;22.43;38.80
75281;HTU21D;63874;47.230;39.620;2023-06-22T06:43:24;22.42;38.43
75281;HTU21D;63874;47.230;39.620;2023-06-22T06:45:51;22.37;38.47
75281;HTU21D;63874;47.230;39.620;2023-06-22T06:48:17;22.41;38.54
75281;HTU21D;63874;47.230;39.620;2023-06-22T06:50:43;22.44;37.79
75281;HTU21D;63874;47.230;39.620;2023-06-22T06:53:10;22.43;37.90
75281;HTU21D;63874;47.230;39.620;2023-06-22T06:55:35;22.46;37.35
75281;HTU21D;63874;47.230;39.620;2023-06-22T06:58:02;22.46;37.24
75281;HTU21D;63874;47.230;39.620;2023-06-22T07:00:32;22.43;37.34
75281;HTU21D;63874;47.230;39.620;2023-06-22T07:03:01;22.39;37.79
75281;HTU21D;63874;47.230;39.620;2023-06-22T07:05:44;22.40;37.90
75281;HTU21D;63874;47.230;39.620;2023-06-22T07:08:10;22.39;38.23
75281;HTU21D;63874;47.230;39.620;2023-06-22T07:10:36;22.39;38.53
75281;HTU21D;63874;47.230;39.620;2023-06-22T07:13:02;22.47;38.63
75281;HTU21D;63874;47.230;39.620;2023-06-22T07:15:27;22.57;38.16
75281;HTU21D;63874;47.230;39.620;2023-06-22T07:17:53;22.67;37.43
75281;HTU21D;63874;47.230;39.620;2023-06-22T07:20:19;22.69;37.52
75281;HTU21D;63874;47.230;39.620;2023-06-22T07:22:45;22.71;37.87
75281;HTU21D;63874;47.230;39.620;2023-06-22T07:25:11;22.76;37.59
75281;HTU21D;63874;47.230;39.620;2023-06-22T07:27:45;22.84;37.58
75281;HTU21D;63874;47.230;39.620;2023-06-22T07:30:12;22.88;37.72
75281;HTU21D;63874;47.230;39.620;2023-06-22T07:32:38;22.91;37.65
75281;HTU21D;63874;47.230;39.620;2023-06-22T07:35:04;22.91;37.78
75281;HTU21D;63874;47.230;39.620;2023-06-22T07:37:30;22.95;38.19
75281;HTU21D;63874;47.230;39.620;2023-06-22T07:39:56;23.02;37.40
75281;HTU21D;63874;47.230;39.620;2023-06-22T07:42:25;23.03;37.24
75281;HTU21D;63874;47.230;39.620;2023-06-22T07:44:51;23.03;36.75
75281;HTU21D;63874;47.230;39.620;2023-06-22T07:47:17;23.02;35.85
75281;HTU21D;63874;47.230;39.620;2023-06-22T07:49:45;23.05;36.39
75281;HTU21D;63874;47.230;39.620;2023-06-22T07:52:11;23.11;35.74
75281;HTU21D;63874;47.230;39.620;2023-06-22T07:54:38;23.12;35.38
75281;HTU21D;63874;47.230;39.620;2023-06-22T07:57:05;23.10;35.49
75281;HTU21D;63874;47.230;39.620;2023-06-22T07:59:31;23.11;35.93
75281;HTU21D;63874;47.230;39.620;2023-06-22T08:01:56;23.15;35.76
75281;HTU21D;63874;47.230;39.620;2023-06-22T08:04:22;23.12;34.52
75281;HTU21D;63874;47.230;39.620;2023-06-22T08:06:48;23.11;35.22
75281;HTU21D;63874;47.230;39.620;2023-06-22T08:09:14;23.16;35.45
75281;HTU21D;63874;47.230;39.620;2023-06-22T08:11:40;23.26;35.84
75281;HTU21D;63874;47.230;39.620;2023-06-22T08:14:06;23.37;35.50
75281;HTU21D;63874;47.230;39.620;2023-06-22T08:16:32;23.37;35.38
75281;HTU21D;63874;47.230;39.620;2023-06-22T08:18:58;23.38;35.10
75281;HTU21D;63874;47.230;39.620;2023-06-22T08:21:23;23.40;35.09
75281;HTU21D;63874;47.230;39.620;2023-06-22T08:23:49;23.46;34.74
75281;HTU21D;63874;47.230;39.620;2023-06-22T08:26:15;23.52;34.59
75281;HTU21D;63874;47.230;39.620;2023-06-22T08:28:41;23.54;34.89
75281;HTU21D;63874;47.230;39.620;2023-06-22T08:31:07;23.60;35.11
75281;HTU21D;63874;47.230;39.620;2023-06-22T08:33:34;23.70;35.30
75281;HTU21D;63874;47.230;39.620;2023-06-22T08:36:00;23.81;34.93
75281;HTU21D;63874;47.230;39.620;2023-06-22T08:38:26;23.90;33.98
75281;HTU21D;63874;47.230;39.620;2023-06-22T08:40:52;23.95;33.96
75281;HTU21D;63874;47.230;39.620;2023-06-22T08:43:17;23.96;34.16
75281;HTU21D;63874;47.230;39.620;2023-06-22T08:45:44;24.03;33.78
75281;HTU21D;63874;47.230;39.620;2023-06-22T08:48:10;24.00;33.84
75281;HTU21D;63874;47.230;39.620;2023-06-22T08:50:36;23.99;34.25
75281;HTU21D;63874;47.230;39.620;2023-06-22T08:53:01;24.02;33.97
75281;HTU21D;63874;47.230;39.620;2023-06-22T08:55:27;24.01;34.46
75281;HTU21D;63874;47.230;39.620;2023-06-22T08:57:53;24.13;34.50
75281;HTU21D;63874;47.230;39.620;2023-06-22T09:00:19;24.24;34.34
75281;HTU21D;63874;47.230;39.620;2023-06-22T09:02:46;24.38;34.34
75281;HTU21D;63874;47.230;39.620;2023-06-22T09:05:13;24.46;33.31
75281;HTU21D;63874;47.230;39.620;2023-06-22T09:07:39;24.42;33.31
75281;HTU21D;63874;47.230;39.620;2023-06-22T09:10:06;24.44;33.75
75281;HTU21D;63874;47.230;39.620;2023-06-22T09:12:32;24.57;33.37
75281;HTU21D;63874;47.230;39.620;2023-06-22T09:15:01;24.69;33.55
75281;HTU21D;63874;47.230;39.620;2023-06-22T09:17:28;24.85;32.77
75281;HTU21D;63874;47.230;39.620;2023-06-22T09:19:54;24.93;32.44
75281;HTU21D;63874;47.230;39.620;2023-06-22T09:22:20;25.73;31.93
75281;HTU21D;63874;47.230;39.620;2023-06-22T09:24:46;27.53;29.97
75281;HTU21D;63874;47.230;39.620;2023-06-22T09:27:12;29.32;27.00
75281;HTU21D;63874;47.230;39.620;2023-06-22T09:29:37;30.62;24.01
75281;HTU21D;63874;47.230;39.620;2023-06-22T09:32:03;31.95;22.89
75281;HTU21D;63874;47.230;39.620;2023-06-22T09:34:30;33.27;21.09
75281;HTU21D;63874;47.230;39.620;2023-06-22T09:36:57;34.27;19.44
75281;HTU21D;63874;47.230;39.620;2023-06-22T09:39:25;34.90;18.48
75281;HTU21D;63874;47.230;39.620;2023-06-22T09:41:51;35.83;17.48
75281;HTU21D;63874;47.230;39.620;2023-06-22T09:44:25;36.69;16.67
75281;HTU21D;63874;47.230;39.620;2023-06-22T09:46:51;37.25;16.17
75281;HTU21D;63874;47.230;39.620;2023-06-22T09:49:16;38.02;15.35
75281;HTU21D;63874;47.230;39.620;2023-06-22T09:51:42;38.97;14.58
75281;HTU21D;63874;47.230;39.620;2023-06-22T09:54:08;39.88;13.66
75281;HTU21D;63874;47.230;39.620;2023-06-22T09:56:34;40.71;12.60
75281;HTU21D;63874;47.230;39.620;2023-06-22T09:59:00;40.91;11.03
75281;HTU21D;63874;47.230;39.620;2023-06-22T10:01:25;40.43;11.48
75281;HTU21D;63874;47.230;39.620;2023-06-22T10:03:55;40.22;11.85
75281;HTU21D;63874;47.230;39.620;2023-06-22T10:06:22;40.22;12.17
75281;HTU21D;63874;47.230;39.620;2023-06-22T10:08:49;40.19;12.03
75281;HTU21D;63874;47.230;39.620;2023-06-22T10:11:15;40.23;12.06
75281;HTU21D;63874;47.230;39.620;2023-06-22T10:13:41;40.25;11.85
75281;HTU21D;63874;47.230;39.620;2023-06-22T10:16:07;39.99;12.23
75281;HTU21D;63874;47.230;39.620;2023-06-22T10:18:33;40.08;11.74
75281;HTU21D;63874;47.230;39.620;2023-06-22T10:20:58;40.43;11.58
75281;HTU21D;63874;47.230;39.620;2023-06-22T10:23:24;40.84;11.07
75281;HTU21D;63874;47.230;39.620;2023-06-22T10:25:50;41.20;10.79
75281;HTU21D;63874;47.230;39.620;2023-06-22T10:28:16;41.60;10.60
75281;HTU21D;63874;47.230;39.620;2023-06-22T10:30:42;41.35;10.11
75281;HTU21D;63874;47.230;39.620;2023-06-22T10:33:09;41.14;9.98
75281;HTU21D;63874;47.230;39.620;2023-06-22T10:35:35;40.88;10.46
75281;HTU21D;63874;47.230;39.620;2023-06-22T10:38:03;40.52;11.07
75281;HTU21D;63874;47.230;39.620;2023-06-22T10:40:29;40.71;11.25
75281;HTU21D;63874;47.230;39.620;2023-06-22T10:42:55;41.16;11.09
75281;HTU21D;63874;47.230;39.620;2023-06-22T10:45:21;41.72;10.65
75281;HTU21D;63874;47.230;39.620;2023-06-22T10:47:47;42.16;10.48
75281;HTU21D;63874;47.230;39.620;2023-06-22T10:50:12;41.91;10.53
75281;HTU21D;63874;47.230;39.620;2023-06-22T10:52:39;41.78;10.72
75281;HTU21D;63874;47.230;39.620;2023-06-22T10:55:05;41.61;10.59
75281;HTU21D;63874;47.230;39.620;2023-06-22T10:57:31;41.19;10.76
75281;HTU21D;63874;47.230;39.620;2023-06-22T10:59:57;40.57;11.12
75281;HTU21D;63874;47.230;39.620;2023-06-22T11:02:23;40.13;11.49
75281;HTU21D;63874;47.230;39.620;2023-06-22T11:04:50;40.03;11.40
75281;HTU21D;63874;47.230;39.620;2023-06-22T11:07:16;39.92;11.62
75281;HTU21D;63874;47.230;39.620;2023-06-22T11:09:43;40.06;11.50
75281;HTU21D;63874;47.230;39.620;2023-06-22T11:12:09;40.10;11.59
75281;HTU21D;63874;47.230;39.620;2023-06-22T11:14:35;40.23;11.71
75281;HTU21D;63874;47.230;39.620;2023-06-22T11:17:01;40.80;10.74
75281;HTU21D;63874;47.230;39.620;2023-06-22T11:19:26;40.52;10.72
75281;HTU21D;63874;47.230;39.620;2023-06-22T11:21:52;40.58;10.71
75281;HTU21D;63874;47.230;39.620;2023-06-22T11:24:18;40.68;10.88
75281;HTU21D;63874;47.230;39.620;2023-06-22T11:26:44;40.87;9.96
75281;HTU21D;63874;47.230;39.620;2023-06-22T11:29:10;40.42;10.07
75281;HTU21D;63874;47.230;39.620;2023-06-22T11:31:36;39.72;10.42
75281;HTU21D;63874;47.230;39.620;2023-06-22T11:34:02;39.43;10.85
75281;HTU21D;63874;47.230;39.620;2023-06-22T11:36:29;39.48;10.68
75281;HTU21D;63874;47.230;39.620;2023-06-22T11:38:58;39.57;10.98
75281;HTU21D;63874;47.230;39.620;2023-06-22T11:41:24;40.11;10.85
75281;HTU21D;63874;47.230;39.620;2023-06-22T11:43:50;40.72;10.54
75281;HTU21D;63874;47.230;39.620;2023-06-22T11:46:16;41.24;10.09
75281;HTU21D;63874;47.230;39.620;2023-06-22T11:48:41;41.57;10.08
75281;HTU21D;63874;47.230;39.620;2023-06-22T11:51:07;42.03;9.79
75281;HTU21D;63874;47.230;39.620;2023-06-22T11:53:34;41.93;9.65
75281;HTU21D;63874;47.230;39.620;2023-06-22T11:56:00;41.84;9.82
75281;HTU21D;63874;47.230;39.620;2023-06-22T11:58:27;41.96;9.94
75281;HTU21D;63874;47.230;39.620;2023-06-22T12:00:54;42.17;9.72
75281;HTU21D;63874;47.230;39.620;2023-06-22T12:03:20;41.79;9.55
75281;HTU21D;63874;47.230;39.620;2023-06-22T12:05:50;41.65;9.88
75281;HTU21D;63874;47.230;39.620;2023-06-22T12:08:17;41.44;9.77
75281;HTU21D;63874;47.230;39.620;2023-06-22T12:10:44;41.14;10.11
75281;HTU21D;63874;47.230;39.620;2023-06-22T12:13:10;40.82;10.33
75281;HTU21D;63874;47.230;39.620;2023-06-22T12:15:36;41.09;10.34
75281;HTU21D;63874;47.230;39.620;2023-06-22T12:18:01;41.61;9.71
75281;HTU21D;63874;47.230;39.620;2023-06-22T12:20:28;41.91;9.47
75281;HTU21D;63874;47.230;39.620;2023-06-22T12:22:54;41.79;9.43
75281;HTU21D;63874;47.230;39.620;2023-06-22T12:25:22;41.40;9.77
75281;HTU21D;63874;47.230;39.620;2023-06-22T12:27:48;40.89;9.97
75281;HTU21D;63874;47.230;39.620;2023-06-22T12:30:16;40.27;10.51
75281;HTU21D;63874;47.230;39.620;2023-06-22T12:32:42;40.19;10.85
75281;HTU21D;63874;47.230;39.620;2023-06-22T12:35:08;40.19;10.61
75281;HTU21D;63874;47.230;39.620;2023-06-22T12:37:41;40.19;10.59
75281;HTU21D;63874;47.230;39.620;2023-06-22T12:40:08;40.58;10.53
75281;HTU21D;63874;47.230;39.620;2023-06-22T12:42:33;41.07;10.08
75281;HTU21D;63874;47.230;39.620;2023-06-22T12:44:59;41.55;9.75
75281;HTU21D;63874;47.230;39.620;2023-06-22T12:47:25;41.77;9.64
75281;HTU21D;63874;47.230;39.620;2023-06-22T12:49:51;41.96;9.49
75281;HTU21D;63874;47.230;39.620;2023-06-22T12:52:17;41.15;9.72
75281;HTU21D;63874;47.230;39.620;2023-06-22T12:54:43;39.77;11.05
75281;HTU21D;63874;47.230;39.620;2023-06-22T12:57:08;39.84;10.99
75281;HTU21D;63874;47.230;39.620;2023-06-22T12:59:34;39.26;11.06
75281;HTU21D;63874;47.230;39.620;2023-06-22T13:02:00;37.87;12.17
75281;HTU21D;63874;47.230;39.620;2023-06-22T13:04:26;36.29;13.64
75281;HTU21D;63874;47.230;39.620;2023-06-22T13:06:52;34.54;15.13
75281;HTU21D;63874;47.230;39.620;2023-06-22T13:09:18;32.93;16.82
75281;HTU21D;63874;47.230;39.620;2023-06-22T13:11:44;31.63;18.03
75281;HTU21D;63874;47.230;39.620;2023-06-22T13:14:10;30.54;19.42
75281;HTU21D;63874;47.230;39.620;2023-06-22T13:16:36;29.61;20.76
75281;HTU21D;63874;47.230;39.620;2023-06-22T13:19:02;28.74;22.27
75281;HTU21D;63874;47.230;39.620;2023-06-22T13:21:28;28.26;23.10
75281;HTU21D;63874;47.230;39.620;2023-06-22T13:23:54;27.89;23.74
75281;HTU21D;63874;47.230;39.620;2023-06-22T13:26:21;27.59;24.57
75281;HTU21D;63874;47.230;39.620;2023-06-22T13:28:47;27.25;24.98
75281;HTU21D;63874;47.230;39.620;2023-06-22T13:31:16;27.07;25.36
75281;HTU21D;63874;47.230;39.620;2023-06-22T13:33:41;27.21;25.29
75281;HTU21D;63874;47.230;39.620;2023-06-22T13:36:07;27.30;24.82
75281;HTU21D;63874;47.230;39.620;2023-06-22T13:38:35;27.01;25.05
75281;HTU21D;63874;47.230;39.620;2023-06-22T13:41:04;26.72;25.36
75281;HTU21D;63874;47.230;39.620;2023-06-22T13:43:31;26.50;25.77
75281;HTU21D;63874;47.230;39.620;2023-06-22T13:45:57;26.28;26.23
75281;HTU21D;63874;47.230;39.620;2023-06-22T13:48:23;26.08;26.77
75281;HTU21D;63874;47.230;39.620;2023-06-22T13:50:52;25.92;27.29
75281;HTU21D;63874;47.230;39.620;2023-06-22T13:53:18;25.79;27.55
75281;HTU21D;63874;47.230;39.620;2023-06-22T13:55:44;25.72;27.91
75281;HTU21D;63874;47.230;39.620;2023-06-22T13:58:09;25.66;28.27
75281;HTU21D;63874;47.230;39.620;2023-06-22T14:00:35;25.56;28.51
75281;HTU21D;63874;47.230;39.620;2023-06-22T14:03:01;25.48;28.84
75281;HTU21D;63874;47.230;39.620;2023-06-22T14:05:27;25.40;29.20
75281;HTU21D;63874;47.230;39.620;2023-06-22T14:07:55;25.35;29.14
75281;HTU21D;63874;47.230;39.620;2023-06-22T14:10:21;25.29;29.28
75281;HTU21D;63874;47.230;39.620;2023-06-22T14:12:47;25.19;29.71
75281;HTU21D;63874;47.230;39.620;2023-06-22T14:15:13;25.13;29.98
75281;HTU21D;63874;47.230;39.620;2023-06-22T14:17:39;25.04;30.14
75281;HTU21D;63874;47.230;39.620;2023-06-22T14:20:05;25.00;30.16
75281;HTU21D;63874;47.230;39.620;2023-06-22T14:22:33;24.93;30.08
75281;HTU21D;63874;47.230;39.620;2023-06-22T14:25:00;24.87;30.24
75281;HTU21D;63874;47.230;39.620;2023-06-22T14:27:26;24.82;30.16
75281;HTU21D;63874;47.230;39.620;2023-06-22T14:29:52;24.78;30.35
75281;HTU21D;63874;47.230;39.620;2023-06-22T14:32:18;24.75;30.40
75281;HTU21D;63874;47.230;39.620;2023-06-22T14:34:44;24.74;30.16
75281;HTU21D;63874;47.230;39.620;2023-06-22T14:37:10;24.70;30.31
75281;HTU21D;63874;47.230;39.620;2023-06-22T14:39:38;24.68;30.40
75281;HTU21D;63874;47.230;39.620;2023-06-22T14:42:05;24.64;30.55
75281;HTU21D;63874;47.230;39.620;2023-06-22T14:44:31;24.64;30.80
75281;HTU21D;63874;47.230;39.620;2023-06-22T14:46:57;24.62;30.84
75281;HTU21D;63874;47.230;39.620;2023-06-22T14:49:23;24.59;30.87
75281;HTU21D;63874;47.230;39.620;2023-06-22T14:51:49;24.56;30.95
75281;HTU21D;63874;47.230;39.620;2023-06-22T14:54:15;24.53;31.11
75281;HTU21D;63874;47.230;39.620;2023-06-22T14:56:41;24.51;31.04
75281;HTU21D;63874;47.230;39.620;2023-06-22T14:59:08;24.48;30.96
75281;HTU21D;63874;47.230;39.620;2023-06-22T15:01:34;24.47;30.94
75281;HTU21D;63874;47.230;39.620;2023-06-22T15:04:00;24.45;30.64
75281;HTU21D;63874;47.230;39.620;2023-06-22T15:06:26;24.42;30.50
75281;HTU21D;63874;47.230;39.620;2023-06-22T15:08:52;24.39;30.72